createdAt,value
2024-01-18T00:00:06.601Z,0.40
2024-01-18T00:01:06.439Z,0.50
2024-01-18T00:02:06.508Z,0.40
2024-01-18T00:03:06.411Z,0.50
2024-01-18T00:04:06.711Z,0.40
2024-01-18T00:05:06.352Z,0.60
2024-01-18T00:06:06.544Z,0.40
2024-01-18T00:07:06.425Z,0.50
2024-01-18T00:08:06.446Z,0.50
2024-01-18T00:09:06.310Z,0.60
2024-01-18T00:10:06.537Z,0.40
2024-01-18T00:11:06.295Z,0.50
2024-01-18T00:12:06.456Z,0.50
2024-01-18T00:13:06.245Z,0.50
2024-01-18T00:14:06.446Z,0.70
2024-01-18T00:15:06.211Z,0.50
2024-01-18T00:16:06.438Z,0.40
2024-01-18T00:17:06.215Z,0.50
2024-01-18T00:18:06.650Z,0.50
2024-01-18T00:19:06.261Z,0.50
2024-01-18T00:20:06.429Z,0.40
2024-01-18T00:21:06.166Z,0.50
2024-01-18T00:22:06.454Z,0.50
2024-01-18T00:23:06.117Z,0.50
2024-01-18T00:24:06.438Z,0.50
2024-01-18T00:25:06.081Z,0.50
2024-01-18T00:26:06.382Z,0.50
2024-01-18T00:27:06.123Z,0.50
2024-01-18T00:28:06.187Z,0.50
2024-01-18T00:29:06.049Z,0.50
2024-01-18T00:30:06.289Z,0.50
2024-01-18T00:31:06.026Z,0.50
2024-01-18T00:32:06.311Z,0.50
2024-01-18T00:33:06.029Z,0.40
2024-01-18T00:34:06.195Z,0.60
2024-01-18T00:35:06.036Z,0.50
2024-01-18T00:36:06.242Z,0.50
2024-01-18T00:37:05.924Z,0.60
2024-01-18T00:38:06.149Z,0.50
2024-01-18T00:39:06.810Z,0.70
2024-01-18T00:40:06.173Z,0.40
2024-01-18T00:41:05.897Z,0.50
2024-01-18T00:42:06.209Z,0.50
2024-01-18T00:43:06.189Z,0.60
2024-01-18T00:44:05.908Z,0.40
2024-01-18T00:45:06.029Z,0.50
2024-01-18T00:46:05.877Z,0.50
2024-01-18T00:47:05.989Z,0.50
2024-01-18T00:48:05.964Z,0.90
2024-01-18T00:49:06.101Z,0.40
2024-01-18T00:50:05.785Z,0.40
2024-01-18T00:51:06.056Z,0.40
2024-01-18T00:52:05.798Z,0.60
2024-01-18T00:53:05.944Z,0.40
2024-01-18T00:54:06.006Z,0.40
2024-01-18T00:55:05.725Z,0.50
2024-01-18T00:56:05.979Z,0.50
2024-01-18T00:57:05.726Z,0.50
2024-01-18T00:58:07.023Z,0.60
2024-01-18T00:59:05.893Z,0.50
2024-01-18T01:00:05.722Z,0.50
2024-01-18T01:01:05.942Z,0.60
2024-01-18T01:02:05.673Z,0.60
2024-01-18T01:03:05.943Z,0.60
2024-01-18T01:04:05.694Z,0.60
2024-01-18T01:05:05.722Z,0.60
2024-01-18T01:06:05.740Z,0.60
2024-01-18T01:07:05.779Z,0.70
2024-01-18T01:08:05.604Z,0.60
2024-01-18T01:09:05.769Z,0.80
2024-01-18T01:10:05.774Z,0.60
2024-01-18T01:11:05.522Z,0.60
2024-01-18T01:12:05.866Z,0.60
2024-01-18T01:13:05.498Z,0.60
2024-01-18T01:14:05.789Z,0.50
2024-01-18T01:15:05.689Z,0.50
2024-01-18T01:16:06.450Z,0.60
2024-01-18T01:17:05.593Z,0.60
2024-01-18T01:18:05.586Z,0.60
2024-01-18T01:19:05.804Z,0.50
2024-01-18T01:20:06.454Z,0.60
2024-01-18T01:21:05.543Z,0.40
2024-01-18T01:22:05.453Z,0.60
2024-01-18T01:23:05.537Z,0.50
2024-01-18T01:24:05.424Z,0.50
2024-01-18T01:25:05.375Z,0.70
2024-01-18T01:26:05.358Z,0.40
2024-01-18T01:27:05.375Z,0.50
2024-01-18T01:28:05.316Z,0.50
2024-01-18T01:29:05.434Z,0.50
2024-01-18T01:30:07.192Z,0.40
2024-01-18T01:31:05.440Z,0.50
2024-01-18T01:32:05.269Z,0.50
2024-01-18T01:33:05.475Z,0.50
2024-01-18T01:34:05.295Z,0.50
2024-01-18T01:35:05.271Z,0.50
2024-01-18T01:36:05.246Z,0.50
2024-01-18T01:37:05.222Z,0.50
2024-01-18T01:38:05.190Z,0.60
2024-01-18T01:39:05.292Z,0.60
2024-01-18T01:40:05.169Z,0.50
2024-01-18T01:41:05.250Z,0.50
2024-01-18T01:42:16.028Z,0.40
2024-01-18T01:43:12.669Z,0.40
2024-01-18T01:44:05.297Z,0.60
2024-01-18T01:45:05.129Z,0.40
2024-01-18T01:46:05.261Z,0.40
2024-01-18T01:47:05.254Z,0.40
2024-01-18T01:48:05.169Z,0.40
2024-01-18T01:49:05.348Z,0.50
2024-01-18T01:50:05.050Z,0.40
2024-01-18T01:51:05.237Z,0.50
2024-01-18T01:52:05.051Z,0.50
2024-01-18T01:53:05.083Z,0.70
2024-01-18T01:54:05.060Z,0.50
2024-01-18T01:55:05.051Z,0.50
2024-01-18T01:56:04.967Z,0.40
2024-01-18T01:57:05.164Z,0.60
2024-01-18T01:58:05.083Z,0.50
2024-01-18T01:59:04.969Z,0.50
2024-01-18T02:00:05.239Z,0.40
2024-01-18T02:01:04.903Z,0.60
2024-01-18T02:02:05.136Z,0.50
2024-01-18T02:03:04.988Z,0.60
2024-01-18T02:04:05.025Z,0.40
2024-01-18T02:05:05.034Z,0.40
2024-01-18T02:06:05.074Z,0.50
2024-01-18T02:07:05.056Z,0.50
2024-01-18T02:08:04.785Z,0.50
2024-01-18T02:09:05.061Z,0.50
2024-01-18T02:10:04.912Z,0.40
2024-01-18T02:11:04.928Z,0.50
2024-01-18T02:12:04.759Z,0.60
2024-01-18T02:13:04.895Z,0.50
2024-01-18T02:14:04.738Z,0.50
2024-01-18T02:15:04.942Z,0.80
2024-01-18T02:16:04.719Z,0.40
2024-01-18T02:17:04.910Z,0.50
2024-01-18T02:18:04.734Z,0.70
2024-01-18T02:19:04.865Z,0.60
2024-01-18T02:20:04.628Z,0.50
2024-01-18T02:21:04.789Z,0.50
2024-01-18T02:22:04.603Z,0.60
2024-01-18T02:23:04.759Z,0.50
2024-01-18T02:24:04.584Z,0.50
2024-01-18T02:25:04.808Z,0.50
2024-01-18T02:26:04.575Z,0.50
2024-01-18T02:27:04.833Z,0.70
2024-01-18T02:28:04.560Z,0.50
2024-01-18T02:29:04.578Z,0.50
2024-01-18T02:30:04.632Z,0.50
2024-01-18T02:31:04.645Z,0.50
2024-01-18T02:32:04.493Z,0.40
2024-01-18T02:33:04.785Z,0.40
2024-01-18T02:34:04.562Z,0.50
2024-01-18T02:35:04.590Z,0.50
2024-01-18T02:36:04.499Z,0.50
2024-01-18T02:37:04.554Z,0.60
2024-01-18T02:38:04.408Z,0.60
2024-01-18T02:39:04.674Z,0.60
2024-01-18T02:40:04.379Z,0.50
2024-01-18T02:41:04.526Z,0.50
2024-01-18T02:42:04.374Z,0.50
2024-01-18T02:43:05.505Z,0.60
2024-01-18T02:44:04.396Z,0.50
2024-01-18T02:45:04.424Z,0.50
2024-01-18T02:46:04.302Z,0.50
2024-01-18T02:47:04.449Z,0.60
2024-01-18T02:48:04.353Z,0.70
2024-01-18T02:49:04.413Z,0.70
2024-01-18T02:50:04.298Z,0.60
2024-01-18T02:51:04.458Z,0.50
2024-01-18T02:52:04.283Z,0.50
2024-01-18T02:53:04.484Z,0.50
2024-01-18T02:54:04.257Z,0.90
2024-01-18T02:55:04.455Z,0.50
2024-01-18T02:56:04.200Z,0.70
2024-01-18T02:57:04.317Z,0.50
2024-01-18T02:58:04.139Z,0.50
2024-01-18T02:59:04.323Z,0.40
2024-01-18T03:00:04.183Z,0.70
2024-01-18T03:01:04.312Z,0.50
2024-01-18T03:02:04.163Z,0.50
2024-01-18T03:03:04.358Z,0.60
2024-01-18T03:04:04.191Z,0.50
2024-01-18T03:05:04.326Z,0.80
2024-01-18T03:06:04.094Z,0.50
2024-01-18T03:07:04.188Z,0.50
2024-01-18T03:08:04.068Z,0.60
2024-01-18T03:09:04.192Z,0.50
2024-01-18T03:10:04.038Z,0.50
2024-01-18T03:11:10.277Z,0.80
2024-01-18T03:12:10.296Z,0.60
2024-01-18T03:13:04.244Z,0.40
2024-01-18T03:14:03.939Z,0.50
2024-01-18T03:15:04.167Z,0.50
2024-01-18T03:16:03.942Z,0.60
2024-01-18T03:17:04.140Z,0.60
2024-01-18T03:18:04.069Z,0.60
2024-01-18T03:19:04.240Z,0.50
2024-01-18T03:20:04.809Z,0.60
2024-01-18T03:21:04.273Z,0.50
2024-01-18T03:22:03.850Z,0.50
2024-01-18T03:23:03.951Z,0.60
2024-01-18T03:24:03.941Z,0.50
2024-01-18T03:25:03.972Z,0.60
2024-01-18T03:26:03.832Z,0.60
2024-01-18T03:27:04.040Z,0.60
2024-01-18T03:28:03.979Z,0.70
2024-01-18T03:29:03.772Z,0.60
2024-01-18T03:30:04.087Z,0.50
2024-01-18T03:31:03.758Z,0.70
2024-01-18T03:32:04.009Z,0.70
2024-01-18T03:33:03.865Z,0.50
2024-01-18T03:34:04.280Z,0.50
2024-01-18T03:35:03.720Z,0.90
2024-01-18T03:36:04.114Z,0.50
2024-01-18T03:37:03.684Z,0.60
2024-01-18T03:38:03.759Z,0.50
2024-01-18T03:39:03.846Z,0.50
2024-01-18T03:40:03.646Z,0.50
2024-01-18T03:41:03.786Z,0.50
2024-01-18T03:42:03.655Z,0.60
2024-01-18T03:43:03.796Z,0.60
2024-01-18T03:44:03.660Z,0.50
2024-01-18T03:45:03.710Z,0.60
2024-01-18T03:46:03.756Z,0.60
2024-01-18T03:47:03.587Z,0.60
2024-01-18T03:48:03.848Z,0.60
2024-01-18T03:49:03.669Z,0.60
2024-01-18T03:50:03.785Z,0.60
2024-01-18T03:51:03.631Z,0.50
2024-01-18T03:52:03.789Z,0.70
2024-01-18T03:53:03.516Z,0.40
2024-01-18T03:54:03.694Z,0.50
2024-01-18T03:55:03.666Z,0.50
2024-01-18T03:56:03.464Z,0.60
2024-01-18T03:57:03.708Z,0.60
2024-01-18T03:58:03.425Z,0.50
2024-01-18T03:59:03.783Z,0.50
2024-01-18T04:00:03.675Z,0.50
2024-01-18T04:01:03.602Z,0.60
2024-01-18T04:02:03.543Z,0.50
2024-01-18T04:03:03.443Z,0.40
2024-01-18T04:04:03.597Z,0.50
2024-01-18T04:05:03.366Z,0.60
2024-01-18T04:06:03.726Z,0.50
2024-01-18T04:07:03.357Z,0.50
2024-01-18T04:08:03.481Z,0.60
2024-01-18T04:09:03.401Z,0.50
2024-01-18T04:10:03.479Z,0.50
2024-01-18T04:11:03.391Z,0.50
2024-01-18T04:12:03.290Z,0.60
2024-01-18T04:13:04.360Z,0.50
2024-01-18T04:14:03.228Z,0.50
2024-01-18T04:15:03.481Z,0.40
2024-01-18T04:16:03.386Z,0.60
2024-01-18T04:17:03.224Z,0.60
2024-01-18T04:18:03.554Z,0.50
2024-01-18T04:19:04.247Z,0.60
2024-01-18T04:20:03.240Z,0.50
2024-01-18T04:21:03.181Z,0.50
2024-01-18T04:22:03.240Z,0.50
2024-01-18T04:23:03.154Z,0.50
2024-01-18T04:24:03.289Z,0.60
2024-01-18T04:25:03.122Z,0.40
2024-01-18T04:26:03.202Z,0.50
2024-01-18T04:27:03.260Z,0.60
2024-01-18T04:28:03.204Z,0.60
2024-01-18T04:29:03.235Z,0.50
2024-01-18T04:30:03.187Z,0.50
2024-01-18T04:31:03.273Z,0.70
2024-01-18T04:32:03.218Z,0.50
2024-01-18T04:33:03.183Z,0.60
2024-01-18T04:34:03.281Z,0.50
2024-01-18T04:35:03.016Z,0.60
2024-01-18T04:36:03.267Z,0.60
2024-01-18T04:37:02.924Z,0.60
2024-01-18T04:38:03.054Z,0.60
2024-01-18T04:39:02.979Z,0.60
2024-01-18T04:40:04.108Z,0.50
2024-01-18T04:41:02.963Z,0.50
2024-01-18T04:42:03.117Z,0.50
2024-01-18T04:43:02.990Z,0.50
2024-01-18T04:44:03.128Z,0.70
2024-01-18T04:45:03.098Z,0.60
2024-01-18T04:46:03.015Z,0.60
2024-01-18T04:47:02.809Z,0.50
2024-01-18T04:48:03.260Z,0.60
2024-01-18T04:49:02.807Z,0.70
2024-01-18T04:50:04.004Z,0.50
2024-01-18T04:51:02.841Z,0.80
2024-01-18T04:52:02.940Z,0.60
2024-01-18T04:53:02.709Z,0.50
2024-01-18T04:54:03.059Z,0.50
2024-01-18T04:55:02.704Z,0.50
2024-01-18T04:56:02.862Z,0.60
2024-01-18T04:57:02.695Z,0.70
2024-01-18T04:58:02.711Z,0.50
2024-01-18T04:59:02.665Z,0.60
2024-01-18T05:00:02.796Z,0.70
2024-01-18T05:01:02.921Z,0.50
2024-01-18T05:02:02.722Z,0.60
2024-01-18T05:03:02.664Z,0.50
2024-01-18T05:04:02.772Z,0.60
2024-01-18T05:05:02.710Z,0.60
2024-01-18T05:06:02.844Z,0.50
2024-01-18T05:07:02.719Z,0.70
2024-01-18T05:08:02.644Z,0.50
2024-01-18T05:09:02.562Z,0.60
2024-01-18T05:10:02.704Z,0.60
2024-01-18T05:11:02.560Z,0.50
2024-01-18T05:12:02.696Z,0.60
2024-01-18T05:13:02.509Z,0.50
2024-01-18T05:14:02.481Z,0.50
2024-01-18T05:15:02.503Z,0.60
2024-01-18T05:16:02.534Z,0.70
2024-01-18T05:17:02.404Z,0.60
2024-01-18T05:18:02.833Z,0.70
2024-01-18T05:19:02.640Z,0.50
2024-01-18T05:20:02.455Z,0.60
2024-01-18T05:21:02.453Z,0.70
2024-01-18T05:22:02.554Z,0.80
2024-01-18T05:23:02.387Z,0.50
2024-01-18T05:24:02.602Z,0.60
2024-01-18T05:25:02.400Z,0.60
2024-01-18T05:26:02.355Z,0.60
2024-01-18T05:27:02.334Z,0.60
2024-01-18T05:28:02.406Z,0.50
2024-01-18T05:29:02.271Z,0.50
2024-01-18T05:30:02.556Z,0.70
2024-01-18T05:31:02.327Z,0.50
2024-01-18T05:32:02.390Z,0.60
2024-01-18T05:33:02.408Z,0.40
2024-01-18T05:34:02.439Z,0.70
2024-01-18T05:35:02.267Z,0.80
2024-01-18T05:36:02.474Z,0.50
2024-01-18T05:37:02.334Z,0.50
2024-01-18T05:38:03.340Z,0.60
2024-01-18T05:39:02.282Z,0.60
2024-01-18T05:40:02.387Z,0.70
2024-01-18T05:41:02.197Z,0.80
2024-01-18T05:42:02.266Z,0.60
2024-01-18T05:43:02.257Z,0.60
2024-01-18T05:44:02.364Z,0.90
2024-01-18T05:45:02.426Z,0.60
2024-01-18T05:46:02.243Z,0.60
2024-01-18T05:47:02.111Z,0.70
2024-01-18T05:48:02.222Z,0.70
2024-01-18T05:49:02.172Z,0.70
2024-01-18T05:50:02.370Z,0.60
2024-01-18T05:51:02.111Z,0.50
2024-01-18T05:52:02.138Z,0.60
2024-01-18T05:53:02.034Z,0.70
2024-01-18T05:54:02.386Z,0.60
2024-01-18T05:55:01.947Z,0.50
2024-01-18T05:56:02.180Z,0.60
2024-01-18T05:57:01.929Z,0.60
2024-01-18T05:58:02.074Z,0.50
2024-01-18T05:59:02.032Z,0.50
2024-01-18T06:00:02.139Z,0.40
2024-01-18T06:01:02.049Z,0.50
2024-01-18T06:02:02.326Z,0.60
2024-01-18T06:03:02.048Z,0.60
2024-01-18T06:04:01.950Z,1.40
2024-01-18T06:05:03.081Z,0.40
2024-01-18T06:06:01.986Z,0.60
2024-01-18T06:07:02.220Z,0.70
2024-01-18T06:08:01.960Z,0.60
2024-01-18T06:09:01.937Z,0.50
2024-01-18T06:10:07.940Z,0.60
2024-01-18T06:11:01.854Z,0.70
2024-01-18T06:12:01.894Z,0.90
2024-01-18T06:13:01.893Z,3.90
2024-01-18T06:14:01.693Z,2.70
2024-01-18T06:15:01.922Z,3.80
2024-01-18T06:16:01.852Z,2.60
2024-01-18T06:17:01.954Z,1.50
2024-01-18T06:18:01.745Z,1.40
2024-01-18T06:19:01.764Z,0.90
2024-01-18T06:20:01.765Z,0.60
2024-01-18T06:21:01.768Z,0.80
2024-01-18T06:22:01.625Z,0.80
2024-01-18T06:23:01.720Z,0.70
2024-01-18T06:24:01.803Z,0.70
2024-01-18T06:25:01.644Z,0.60
2024-01-18T06:26:01.761Z,0.60
2024-01-18T06:27:01.672Z,0.50
2024-01-18T06:28:01.772Z,0.70
2024-01-18T06:29:01.620Z,0.60
2024-01-18T06:30:01.770Z,0.70
2024-01-18T06:31:01.456Z,0.60
2024-01-18T06:32:03.366Z,1.20
2024-01-18T06:33:01.524Z,0.90
2024-01-18T06:34:01.830Z,1.10
2024-01-18T06:35:01.533Z,0.70
2024-01-18T06:36:01.787Z,0.80
2024-01-18T06:37:01.393Z,0.70
2024-01-18T06:38:01.664Z,0.60
2024-01-18T06:39:01.402Z,0.70
2024-01-18T06:40:02.517Z,0.50
2024-01-18T06:41:01.347Z,0.60
2024-01-18T06:42:01.547Z,0.90
2024-01-18T06:43:01.304Z,1.10
2024-01-18T06:44:01.425Z,0.60
2024-01-18T06:45:01.327Z,0.70
2024-01-18T06:46:01.567Z,0.80
2024-01-18T06:47:01.457Z,0.50
2024-01-18T06:48:01.917Z,0.60
2024-01-18T06:49:01.376Z,0.70
2024-01-18T06:50:01.352Z,0.60
2024-01-18T06:51:01.384Z,0.60
2024-01-18T06:52:01.388Z,0.60
2024-01-18T06:53:01.279Z,0.60
2024-01-18T06:54:01.604Z,0.50
2024-01-18T06:55:01.299Z,0.50
2024-01-18T06:56:01.525Z,0.60
2024-01-18T06:57:07.528Z,0.60
2024-01-18T06:58:01.427Z,0.60
2024-01-18T06:59:01.092Z,0.60
2024-01-18T07:00:01.249Z,0.60
2024-01-18T07:01:01.194Z,0.50
2024-01-18T07:02:01.252Z,0.50
2024-01-18T07:03:01.242Z,0.50
2024-01-18T07:04:01.560Z,0.50
2024-01-18T07:05:01.022Z,0.60
2024-01-18T07:06:01.320Z,0.50
2024-01-18T07:07:01.412Z,0.50
2024-01-18T07:08:01.111Z,0.60
2024-01-18T07:09:01.369Z,0.50
2024-01-18T07:10:01.065Z,0.40
2024-01-18T07:11:01.104Z,0.40
2024-01-18T07:12:01.097Z,0.60
2024-01-18T07:13:01.060Z,0.60
2024-01-18T07:14:00.933Z,0.50
2024-01-18T07:15:01.179Z,0.40
2024-01-18T07:16:00.997Z,0.40
2024-01-18T07:17:01.149Z,0.50
2024-01-18T07:18:01.026Z,0.50
2024-01-18T07:19:01.492Z,0.60
2024-01-18T07:20:00.963Z,0.70
2024-01-18T07:21:00.948Z,0.40
2024-01-18T07:22:00.831Z,0.40
2024-01-18T07:23:00.917Z,0.50
2024-01-18T07:24:00.871Z,0.60
2024-01-18T07:25:00.999Z,0.40
2024-01-18T07:26:00.851Z,0.50
2024-01-18T07:27:01.001Z,0.40
2024-01-18T07:28:00.788Z,0.50
2024-01-18T07:29:00.962Z,0.50
2024-01-18T07:30:00.746Z,0.50
2024-01-18T07:31:00.818Z,0.60
2024-01-18T07:32:00.900Z,0.40
2024-01-18T07:33:01.001Z,0.50
2024-01-18T07:34:00.794Z,0.40
2024-01-18T07:35:00.958Z,0.50
2024-01-18T07:36:00.844Z,0.60
2024-01-18T07:37:00.793Z,0.50
2024-01-18T07:38:00.726Z,0.40
2024-01-18T07:39:00.862Z,0.50
2024-01-18T07:40:00.712Z,0.50
2024-01-18T07:41:00.865Z,0.60
2024-01-18T07:42:00.625Z,1.80
2024-01-18T07:43:00.990Z,1.40
2024-01-18T07:44:00.796Z,1.60
2024-01-18T07:45:00.613Z,1.30
2024-01-18T07:46:00.808Z,0.80
2024-01-18T07:47:00.557Z,0.80
2024-01-18T07:48:00.765Z,0.50
2024-01-18T07:49:00.587Z,0.60
2024-01-18T07:50:10.187Z,0.60
2024-01-18T07:51:00.480Z,0.60
2024-01-18T07:52:00.751Z,0.60
2024-01-18T07:53:00.477Z,0.50
2024-01-18T07:54:00.671Z,0.50
2024-01-18T07:55:00.458Z,0.50
2024-01-18T07:56:00.666Z,0.50
2024-01-18T07:57:00.403Z,0.40
2024-01-18T07:58:00.746Z,0.70
2024-01-18T07:59:00.400Z,0.60
2024-01-18T08:00:00.503Z,0.50
2024-01-18T08:01:00.459Z,0.50
2024-01-18T08:02:00.682Z,0.50
2024-01-18T08:03:00.375Z,0.40
2024-01-18T08:04:00.732Z,0.40
2024-01-18T08:05:00.500Z,0.40
2024-01-18T08:06:00.574Z,0.50
2024-01-18T08:07:00.823Z,0.40
2024-01-18T08:08:00.468Z,0.50
2024-01-18T08:09:00.277Z,0.90
2024-01-18T08:10:00.507Z,0.50
2024-01-18T08:11:00.231Z,0.40
2024-01-18T08:12:00.418Z,0.50
2024-01-18T08:13:00.249Z,0.50
2024-01-18T08:14:00.414Z,0.60
2024-01-18T08:15:00.267Z,0.50
2024-01-18T08:16:00.415Z,0.60
2024-01-18T08:17:00.178Z,0.60
2024-01-18T08:18:00.482Z,0.50
2024-01-18T08:19:00.185Z,0.60
2024-01-18T08:20:00.522Z,0.50
2024-01-18T08:21:00.144Z,0.50
2024-01-18T08:22:00.271Z,0.80
2024-01-18T08:23:00.103Z,0.50
2024-01-18T08:24:00.269Z,0.50
2024-01-18T08:25:00.050Z,0.50
2024-01-18T08:26:01.308Z,0.60
2024-01-18T08:27:00.078Z,0.60
2024-01-18T08:28:00.341Z,0.50
2024-01-18T08:28:59.995Z,0.50
2024-01-18T08:30:00.429Z,0.50
2024-01-18T08:31:00.167Z,0.50
2024-01-18T08:32:00.077Z,0.50
2024-01-18T08:32:59.961Z,0.50
2024-01-18T08:34:00.161Z,0.50
2024-01-18T08:34:59.938Z,0.50
2024-01-18T08:36:00.067Z,0.50
2024-01-18T08:36:59.956Z,0.40
2024-01-18T08:38:00.054Z,0.60
2024-01-18T08:38:59.862Z,0.40
2024-01-18T08:40:00.166Z,0.50
2024-01-18T08:40:59.936Z,0.60
2024-01-18T08:42:00.090Z,0.50
2024-01-18T08:42:59.856Z,0.50
2024-01-18T08:43:59.837Z,0.50
2024-01-18T08:44:59.908Z,0.60
2024-01-18T08:45:59.792Z,0.50
2024-01-18T08:46:59.898Z,0.60
2024-01-18T08:48:00.011Z,0.70
2024-01-18T08:49:00.496Z,0.60
2024-01-18T08:49:59.953Z,0.50
2024-01-18T08:50:59.829Z,0.50
2024-01-18T08:52:00.015Z,0.60
2024-01-18T08:52:59.664Z,0.50
2024-01-18T08:53:59.759Z,0.40
2024-01-18T08:54:59.680Z,0.50
2024-01-18T08:55:59.814Z,0.60
2024-01-18T08:56:59.676Z,0.50
2024-01-18T08:57:59.788Z,0.70
2024-01-18T08:58:59.600Z,0.50
2024-01-18T08:59:59.780Z,0.50
2024-01-18T09:00:59.736Z,0.50
2024-01-18T09:02:09.404Z,0.50
2024-01-18T09:02:59.701Z,0.60
2024-01-18T09:03:59.747Z,0.60
2024-01-18T09:04:59.563Z,0.50
2024-01-18T09:05:59.631Z,0.50
2024-01-18T09:06:59.521Z,0.50
2024-01-18T09:08:01.406Z,0.50
2024-01-18T09:08:59.519Z,0.60
2024-01-18T09:09:59.736Z,0.60
2024-01-18T09:10:59.451Z,0.50
2024-01-18T09:11:59.580Z,0.40
2024-01-18T09:12:59.461Z,0.40
2024-01-18T09:13:59.745Z,0.40
2024-01-18T09:14:59.473Z,0.50
2024-01-18T09:15:59.634Z,0.50
2024-01-18T09:16:59.421Z,0.50
2024-01-18T09:17:59.667Z,0.40
2024-01-18T09:19:10.477Z,0.50
2024-01-18T09:19:59.616Z,0.50
2024-01-18T09:20:59.576Z,0.50
2024-01-18T09:21:59.333Z,0.50
2024-01-18T09:23:08.840Z,0.50
2024-01-18T09:23:59.339Z,0.50
2024-01-18T09:24:59.397Z,0.50
2024-01-18T09:25:59.316Z,0.50
2024-01-18T09:26:59.372Z,0.40
2024-01-18T09:27:59.241Z,0.50
2024-01-18T09:28:59.401Z,0.60
2024-01-18T09:29:59.235Z,0.60
2024-01-18T09:30:59.328Z,0.50
2024-01-18T09:31:59.293Z,0.50
2024-01-18T09:33:00.364Z,0.50
2024-01-18T09:33:59.257Z,0.70
2024-01-18T09:34:59.403Z,0.60
2024-01-18T09:35:59.320Z,0.50
2024-01-18T09:36:59.195Z,0.60
2024-01-18T09:37:59.237Z,0.50
2024-01-18T09:38:59.200Z,0.60
2024-01-18T09:39:59.338Z,0.50
2024-01-18T09:40:59.064Z,0.60
2024-01-18T09:41:59.239Z,0.50
2024-01-18T09:42:59.139Z,0.50
2024-01-18T09:43:59.311Z,0.50
2024-01-18T09:44:58.999Z,0.60
2024-01-18T09:45:59.168Z,0.70
2024-01-18T09:46:59.038Z,0.60
2024-01-18T09:47:59.101Z,0.60
2024-01-18T09:49:02.322Z,0.50
2024-01-18T09:49:59.007Z,0.50
2024-01-18T09:50:59.164Z,0.50
2024-01-18T09:51:59.168Z,0.50
2024-01-18T09:52:58.900Z,0.40
2024-01-18T09:53:59.161Z,0.40
2024-01-18T09:54:58.891Z,0.40
2024-01-18T09:56:00.242Z,0.40
2024-01-18T09:56:58.852Z,0.50
2024-01-18T09:57:59.065Z,0.40
2024-01-18T09:58:59.094Z,0.40
2024-01-18T09:59:58.983Z,0.40
2024-01-18T10:00:58.914Z,0.40
2024-01-18T10:01:59.129Z,0.40
2024-01-18T10:02:58.800Z,0.50
2024-01-18T10:03:58.973Z,0.30
2024-01-18T10:04:58.789Z,0.40
2024-01-18T10:05:58.986Z,0.30
2024-01-18T10:07:00.376Z,0.40
2024-01-18T10:07:59.163Z,0.40
2024-01-18T10:08:58.712Z,0.40
2024-01-18T10:09:58.827Z,0.40
2024-01-18T10:10:58.697Z,0.40
2024-01-18T10:11:58.860Z,0.40
2024-01-18T10:12:58.711Z,0.40
2024-01-18T10:13:58.928Z,0.50
2024-01-18T10:14:58.742Z,0.40
2024-01-18T10:15:58.906Z,0.70
2024-01-18T10:16:58.610Z,0.80
2024-01-18T10:17:58.747Z,0.80
2024-01-18T10:18:58.867Z,0.70
2024-01-18T10:19:58.778Z,0.80
2024-01-18T10:20:58.624Z,0.70
2024-01-18T10:21:58.749Z,0.70
2024-01-18T10:23:00.157Z,0.60
2024-01-18T10:23:58.800Z,0.70
2024-01-18T10:24:58.594Z,0.60
2024-01-18T10:25:58.808Z,0.70
2024-01-18T10:26:58.492Z,0.70
2024-01-18T10:27:58.771Z,0.70
2024-01-18T10:29:00.419Z,0.60
2024-01-18T10:29:58.589Z,0.60
2024-01-18T10:30:58.504Z,0.70
2024-01-18T10:31:58.642Z,0.50
2024-01-18T10:32:58.595Z,0.60
2024-01-18T10:33:58.808Z,0.60
2024-01-18T10:35:00.391Z,0.60
2024-01-18T10:35:58.667Z,0.60
2024-01-18T10:36:58.455Z,0.50
2024-01-18T10:37:58.609Z,0.50
2024-01-18T10:38:58.396Z,0.50
2024-01-18T10:39:58.614Z,0.50
2024-01-18T10:40:58.324Z,0.50
2024-01-18T10:41:58.582Z,0.50
2024-01-18T10:42:58.482Z,0.60
2024-01-18T10:43:58.537Z,0.50
2024-01-18T10:44:58.370Z,0.50
2024-01-18T10:45:58.376Z,0.50
2024-01-18T10:46:58.262Z,0.70
2024-01-18T10:47:58.458Z,0.70
2024-01-18T10:48:58.261Z,0.70
2024-01-18T10:49:58.820Z,0.80
2024-01-18T10:50:58.202Z,0.70
2024-01-18T10:51:58.423Z,0.50
2024-01-18T10:52:58.187Z,0.60
2024-01-18T10:53:59.153Z,0.50
2024-01-18T10:55:07.474Z,0.50
2024-01-18T10:55:58.159Z,0.50
2024-01-18T10:56:58.384Z,0.60
2024-01-18T10:57:58.168Z,0.50
2024-01-18T10:58:58.271Z,0.50
2024-01-18T10:59:58.077Z,0.80
2024-01-18T11:00:58.374Z,0.70
2024-01-18T11:01:58.064Z,0.70
2024-01-18T11:02:58.361Z,0.70
2024-01-18T11:03:58.053Z,0.60
2024-01-18T11:04:58.114Z,0.80
2024-01-18T11:05:57.986Z,0.60
2024-01-18T11:06:58.246Z,0.60
2024-01-18T11:07:57.979Z,0.80
2024-01-18T11:08:58.174Z,0.70
2024-01-18T11:10:04.178Z,0.80
2024-01-18T11:11:04.282Z,0.60
2024-01-18T11:11:58.144Z,0.80
2024-01-18T11:12:58.091Z,0.80
2024-01-18T11:13:58.006Z,0.60
2024-01-18T11:14:57.930Z,0.70
2024-01-18T11:15:58.027Z,0.80
2024-01-18T11:16:57.993Z,0.60
2024-01-18T11:17:57.879Z,0.60
2024-01-18T11:18:58.046Z,0.60
2024-01-18T11:19:57.895Z,0.70
2024-01-18T11:20:57.967Z,0.60
2024-01-18T11:21:57.835Z,0.60
2024-01-18T11:22:57.963Z,0.70
2024-01-18T11:23:57.803Z,0.50
2024-01-18T11:24:57.980Z,0.80
2024-01-18T11:25:57.771Z,0.60
2024-01-18T11:26:58.025Z,0.50
2024-01-18T11:27:57.818Z,0.60
2024-01-18T11:28:57.973Z,0.70
2024-01-18T11:29:57.736Z,0.60
2024-01-18T11:30:57.820Z,0.60
2024-01-18T11:31:57.763Z,0.70
2024-01-18T11:32:57.937Z,0.80
2024-01-18T11:33:57.686Z,0.70
2024-01-18T11:34:57.898Z,0.60
2024-01-18T11:35:57.697Z,0.60
2024-01-18T11:36:57.776Z,0.70
2024-01-18T11:37:58.429Z,0.60
2024-01-18T11:38:57.724Z,0.70
2024-01-18T11:39:57.624Z,0.70
2024-01-18T11:40:57.779Z,1.30
2024-01-18T11:41:59.452Z,3.20
2024-01-18T11:42:57.846Z,3.70
2024-01-18T11:43:57.628Z,3.60
2024-01-18T11:44:57.806Z,3.80
2024-01-18T11:45:57.604Z,1.00
2024-01-18T11:46:57.570Z,0.80
2024-01-18T11:47:57.492Z,1.60
2024-01-18T11:48:57.663Z,2.70
2024-01-18T11:49:57.522Z,1.20
2024-01-18T11:50:57.593Z,0.90
2024-01-18T11:51:57.477Z,0.90
2024-01-18T11:52:58.203Z,0.80
2024-01-18T11:53:57.386Z,0.80
2024-01-18T11:54:58.008Z,0.70
2024-01-18T11:55:57.380Z,0.90
2024-01-18T11:56:57.481Z,0.80
2024-01-18T11:57:57.407Z,0.90
2024-01-18T11:59:00.146Z,0.90
2024-01-18T11:59:57.463Z,0.90
2024-01-18T12:00:57.504Z,1.00
2024-01-18T12:01:57.563Z,1.60
2024-01-18T12:02:57.389Z,2.10
2024-01-18T12:03:57.458Z,2.60
2024-01-18T12:04:57.342Z,3.40
2024-01-18T12:05:57.389Z,1.40
2024-01-18T12:06:57.381Z,3.50
2024-01-18T12:07:57.441Z,9.20
2024-01-18T12:08:57.294Z,3.50
2024-01-18T12:09:57.491Z,2.60
2024-01-18T12:10:57.234Z,1.50
2024-01-18T12:11:57.273Z,1.90
2024-01-18T12:12:57.230Z,1.20
2024-01-18T12:13:57.241Z,1.00
2024-01-18T12:14:57.194Z,1.20
2024-01-18T12:15:57.389Z,1.20
2024-01-18T12:16:57.138Z,1.70
2024-01-18T12:17:57.317Z,2.50
2024-01-18T12:18:57.138Z,1.90
2024-01-18T12:19:57.437Z,1.50
2024-01-18T12:20:57.151Z,1.50
2024-01-18T12:21:57.219Z,1.10
2024-01-18T12:22:57.113Z,1.20
2024-01-18T12:23:57.221Z,1.30
2024-01-18T12:24:57.146Z,1.40
2024-01-18T12:25:57.305Z,1.10
2024-01-18T12:26:57.152Z,1.10
2024-01-18T12:27:57.314Z,0.90
2024-01-18T12:28:56.980Z,0.80
2024-01-18T12:29:57.131Z,1.30
2024-01-18T12:30:56.989Z,1.40
2024-01-18T12:31:57.129Z,1.40
2024-01-18T12:32:57.032Z,1.60
2024-01-18T12:33:57.125Z,1.30
2024-01-18T12:34:56.993Z,1.30
2024-01-18T12:35:59.104Z,1.20
2024-01-18T12:36:56.982Z,1.40
2024-01-18T12:37:57.192Z,1.00
2024-01-18T12:38:57.013Z,1.00
2024-01-18T12:39:57.396Z,0.80
2024-01-18T12:40:56.984Z,0.90
2024-01-18T12:41:57.140Z,1.10
2024-01-18T12:42:57.031Z,1.00
2024-01-18T12:43:57.033Z,0.90
2024-01-18T12:44:57.018Z,0.80
2024-01-18T12:45:56.988Z,0.90
2024-01-18T12:46:56.823Z,0.80
2024-01-18T12:47:56.976Z,0.90
2024-01-18T12:48:56.955Z,0.80
2024-01-18T12:49:57.617Z,0.70
2024-01-18T12:50:56.752Z,0.90
2024-01-18T12:51:56.975Z,0.90
2024-01-18T12:52:58.125Z,1.00
2024-01-18T12:53:56.816Z,1.00
2024-01-18T12:54:56.749Z,1.10
2024-01-18T12:55:56.806Z,0.90
2024-01-18T12:56:56.812Z,0.90
2024-01-18T12:57:56.793Z,1.00
2024-01-18T12:58:56.758Z,1.00
2024-01-18T12:59:56.631Z,0.90
2024-01-18T13:00:56.946Z,1.00
2024-01-18T13:01:56.601Z,0.90
2024-01-18T13:02:56.800Z,1.00
2024-01-18T13:03:56.693Z,1.10
2024-01-18T13:04:57.006Z,1.00
2024-01-18T13:05:56.574Z,1.60
2024-01-18T13:07:01.804Z,1.10
2024-01-18T13:07:56.629Z,1.10
2024-01-18T13:08:56.810Z,1.20
2024-01-18T13:09:56.820Z,1.10
2024-01-18T13:10:56.525Z,1.10
2024-01-18T13:11:57.383Z,1.70
2024-01-18T13:12:56.644Z,1.30
2024-01-18T13:13:56.820Z,1.40
2024-01-18T13:14:56.468Z,1.30
2024-01-18T13:15:56.523Z,1.50
2024-01-18T13:16:56.464Z,1.50
2024-01-18T13:17:56.639Z,1.30